createdAt,value
2022-12-11T00:08:19.591Z,53.25
2022-12-11T00:10:50.634Z,64.32
2022-12-11T00:13:18.561Z,48.70
2022-12-11T00:15:46.095Z,65.68
2022-12-11T00:18:14.982Z,65.38
2022-12-11T00:20:42.634Z,57.45
2022-12-11T00:23:10.970Z,61.45
2022-12-11T00:25:46.417Z,57.42
2022-12-11T00:28:20.493Z,61.95
2022-12-11T00:30:48.265Z,62.17
2022-12-11T00:33:16.158Z,26.08
2022-12-11T00:35:47.936Z,70.13
2022-12-11T00:38:17.681Z,70.18
2022-12-11T00:40:45.292Z,58.08
2022-12-11T00:43:12.967Z,69.32
2022-12-11T00:45:44.178Z,82.60
2022-12-11T00:48:12.644Z,65.50
2022-12-11T00:50:40.735Z,90.75
2022-12-11T00:53:08.338Z,73.05
2022-12-11T00:55:41.038Z,65.40
2022-12-11T00:58:08.418Z,73.70
2022-12-11T01:00:36.085Z,80.03
2022-12-11T01:03:03.535Z,79.75
2022-12-11T01:05:30.778Z,64.95
2022-12-11T01:07:57.887Z,78.30
2022-12-11T01:10:25.349Z,80.45
2022-12-11T01:13:01.395Z,59.17
2022-12-11T01:15:32.258Z,77.18
2022-12-11T01:18:00.172Z,72.07
2022-12-11T01:20:28.272Z,93.35
2022-12-11T01:22:58.188Z,85.43
2022-12-11T01:25:27.030Z,77.57
2022-12-11T01:27:56.004Z,85.93
2022-12-11T01:30:25.613Z,68.95
2022-12-11T01:32:53.151Z,85.88
2022-12-11T01:35:20.691Z,75.60
2022-12-11T01:37:48.557Z,84.90
2022-12-11T01:40:19.949Z,85.38
2022-12-11T01:42:47.359Z,89.25
2022-12-11T01:45:52.624Z,80.38
2022-12-11T01:48:24.379Z,66.47
2022-12-11T01:50:58.596Z,92.10
2022-12-11T01:53:37.057Z,77.30
2022-12-11T01:56:06.528Z,76.90
2022-12-11T01:58:39.259Z,82.40
2022-12-11T02:01:06.410Z,68.90
2022-12-11T02:03:33.519Z,99.38
2022-12-11T02:06:02.514Z,92.03
2022-12-11T02:08:30.054Z,80.45
2022-12-11T02:11:25.957Z,102.18
2022-12-11T02:14:32.310Z,74.80
2022-12-11T02:17:07.238Z,89.32
2022-12-11T02:20:03.960Z,82.00
2022-12-11T02:26:04.290Z,71.38
2022-12-11T02:48:24.806Z,71.57
2022-12-11T02:50:57.494Z,74.30
2022-12-11T03:10:21.262Z,65.15
2022-12-11T03:12:54.028Z,76.82
2022-12-11T03:15:32.385Z,71.70
2022-12-11T03:18:33.678Z,57.40
2022-12-11T03:21:12.275Z,72.97
2022-12-11T03:23:51.295Z,71.20
2022-12-11T03:26:20.801Z,71.00
2022-12-11T03:28:58.653Z,71.43
2022-12-11T03:31:53.205Z,64.70
2022-12-11T03:34:37.358Z,60.60
2022-12-11T03:37:07.411Z,67.93
2022-12-11T03:39:40.991Z,69.45
2022-12-11T04:50:03.272Z,57.83
2022-12-11T04:52:30.228Z,66.57
2022-12-11T04:54:57.145Z,65.55
2022-12-11T04:57:24.203Z,67.13
2022-12-11T04:59:51.285Z,65.63
2022-12-11T05:02:18.330Z,58.30
2022-12-11T05:04:45.313Z,61.50
2022-12-11T05:07:12.220Z,56.10
2022-12-11T05:09:39.113Z,61.20
2022-12-11T05:12:06.079Z,57.95
2022-12-11T05:20:25.345Z,61.72
2022-12-11T05:22:52.272Z,56.22
2022-12-11T05:25:19.336Z,65.63
2022-12-11T05:27:46.381Z,61.97
2022-12-11T05:30:13.608Z,71.95
2022-12-11T05:32:40.588Z,66.25
2022-12-11T05:35:08.302Z,62.28
2022-12-11T06:27:26.998Z,62.78
2022-12-11T06:29:53.975Z,67.47
2022-12-11T06:32:20.942Z,61.72
2022-12-11T06:34:48.353Z,54.25
2022-12-11T06:40:06.706Z,60.30
2022-12-11T06:42:34.900Z,60.30
2022-12-11T06:45:02.714Z,50.10
2022-12-11T06:47:31.192Z,59.08
2022-12-11T06:52:50.014Z,52.15
2022-12-11T06:55:30.089Z,56.30
2022-12-11T07:01:24.641Z,60.10
2022-12-11T07:06:44.538Z,50.50
2022-12-11T07:09:11.866Z,53.25
2022-12-11T07:11:41.213Z,50.33
2022-12-11T07:14:08.981Z,47.45
2022-12-11T07:16:36.231Z,55.75
2022-12-11T07:19:03.240Z,57.80
2022-12-11T07:21:30.189Z,56.42
2022-12-11T07:23:57.614Z,53.30
2022-12-11T07:26:26.042Z,58.25
2022-12-11T07:29:07.856Z,53.95
2022-12-11T07:31:52.257Z,52.45
2022-12-11T07:34:24.840Z,61.22
2022-12-11T07:37:10.009Z,58.42
2022-12-11T07:39:42.451Z,63.53
2022-12-11T07:42:10.466Z,55.42
2022-12-11T07:44:46.085Z,58.63
2022-12-11T07:47:18.886Z,53.88
2022-12-11T07:49:57.453Z,53.92
2022-12-11T07:55:44.818Z,57.22
2022-12-11T07:58:12.491Z,50.55
2022-12-11T08:00:46.476Z,50.47
2022-12-11T08:03:25.688Z,55.08
2022-12-11T08:08:25.394Z,45.25
2022-12-11T08:10:52.599Z,50.45
2022-12-11T08:13:21.841Z,54.15
2022-12-11T08:15:56.474Z,46.75
2022-12-11T08:18:27.438Z,46.92
2022-12-11T08:25:05.366Z,43.50
2022-12-11T08:33:53.036Z,48.25
2022-12-11T08:36:22.450Z,35.75
2022-12-11T08:38:51.091Z,33.40
2022-12-11T08:41:30.527Z,41.72
2022-12-11T08:44:00.543Z,31.60
2022-12-11T08:46:32.058Z,28.27
2022-12-11T08:49:00.311Z,33.17
2022-12-11T08:51:30.835Z,30.83
2022-12-11T08:54:00.982Z,32.25
2022-12-11T08:56:28.906Z,34.83
2022-12-11T08:58:56.763Z,38.83
2022-12-11T09:01:27.147Z,33.63
2022-12-11T09:03:58.302Z,30.13
2022-12-11T09:06:29.677Z,29.77
2022-12-11T09:09:00.819Z,34.67
2022-12-11T09:11:32.846Z,35.47
2022-12-11T09:14:06.708Z,38.28
2022-12-11T09:16:40.366Z,30.95
2022-12-11T09:19:13.285Z,34.13
2022-12-11T09:21:41.598Z,34.45
2022-12-11T09:24:11.126Z,34.08
2022-12-11T09:26:38.545Z,33.38
2022-12-11T09:29:06.416Z,31.75
2022-12-11T09:31:37.317Z,28.27
2022-12-11T09:34:08.911Z,27.02
2022-12-11T09:36:38.891Z,32.33
2022-12-11T09:39:08.737Z,29.35
2022-12-11T09:42:02.433Z,27.08
2022-12-11T09:44:49.086Z,29.40
2022-12-11T09:47:43.263Z,25.45
2022-12-11T09:50:10.684Z,27.10
2022-12-11T09:53:20.778Z,25.00
2022-12-11T09:56:09.893Z,24.55
2022-12-11T09:58:48.544Z,26.38
2022-12-11T10:01:32.130Z,25.17
2022-12-11T10:04:14.353Z,30.55
2022-12-11T10:07:21.185Z,32.90
2022-12-11T10:10:38.581Z,23.15
2022-12-11T10:13:34.201Z,30.55
2022-12-11T10:16:25.312Z,23.70
2022-12-11T10:18:53.284Z,24.23
2022-12-11T10:21:20.806Z,25.13
2022-12-11T10:24:01.236Z,25.05
2022-12-11T10:26:29.567Z,22.42
2022-12-11T10:29:01.148Z,23.90
2022-12-11T10:31:47.617Z,22.98
2022-12-11T10:34:34.422Z,19.73
2022-12-11T10:37:02.175Z,23.67
2022-12-11T10:39:29.680Z,23.65
2022-12-11T10:41:58.481Z,19.17
2022-12-11T10:44:27.076Z,20.92
2022-12-11T10:47:13.975Z,26.75
2022-12-11T10:49:57.251Z,24.40
2022-12-11T10:52:43.311Z,22.77
2022-12-11T10:55:34.118Z,22.23
2022-12-11T10:58:05.384Z,24.48
2022-12-11T11:00:37.509Z,25.05
2022-12-11T11:03:21.917Z,24.92
2022-12-11T11:05:50.853Z,23.40
2022-12-11T11:08:26.212Z,24.23
2022-12-11T11:11:01.107Z,26.10
2022-12-11T11:13:33.748Z,24.37
2022-12-11T11:16:06.307Z,27.02
2022-12-11T11:18:34.721Z,21.73
2022-12-11T11:21:14.682Z,22.05
2022-12-11T11:23:48.286Z,35.08
2022-12-11T11:28:56.871Z,23.90
2022-12-11T11:31:35.556Z,25.98
2022-12-11T12:12:04.041Z,30.52
2022-12-11T12:14:53.211Z,21.50
2022-12-11T12:17:55.174Z,28.42
2022-12-11T12:21:00.893Z,19.15
2022-12-11T12:24:02.178Z,27.85
2022-12-11T12:26:47.126Z,32.17
2022-12-11T12:38:16.062Z,27.77
2022-12-11T13:09:40.752Z,34.20
2022-12-11T13:34:35.718Z,35.17
2022-12-11T13:37:04.742Z,34.65
2022-12-11T13:39:38.346Z,34.70
2022-12-11T13:42:24.264Z,40.63
2022-12-11T13:44:52.441Z,35.72
2022-12-11T13:47:21.241Z,37.33
2022-12-11T13:53:00.452Z,38.35
2022-12-11T13:55:32.542Z,34.45
2022-12-11T13:58:00.711Z,38.60
2022-12-11T14:01:17.754Z,43.00
2022-12-11T14:19:59.548Z,33.60
2022-12-11T14:22:53.661Z,30.48
2022-12-11T14:35:50.814Z,38.83
2022-12-11T14:38:24.397Z,31.90
2022-12-11T14:40:57.244Z,39.88
2022-12-11T14:43:37.458Z,36.58
2022-12-11T14:51:58.338Z,33.80
2022-12-11T15:19:38.169Z,34.40
2022-12-11T15:22:09.030Z,41.92
2022-12-11T15:37:59.780Z,30.63
2022-12-11T16:11:26.408Z,36.17
2022-12-11T16:36:13.847Z,34.38
2022-12-11T16:45:14.591Z,33.65
2022-12-11T16:47:42.482Z,30.63
2022-12-11T16:50:15.366Z,30.48
2022-12-11T16:52:43.746Z,38.25
2022-12-11T16:55:13.182Z,35.00
2022-12-11T16:57:40.529Z,40.80
2022-12-11T17:00:10.048Z,39.75
2022-12-11T17:02:37.232Z,34.83
2022-12-11T17:05:05.132Z,34.35
2022-12-11T17:07:33.885Z,33.70
2022-12-11T17:10:03.213Z,36.10
2022-12-11T17:22:17.340Z,41.85
2022-12-11T17:24:44.950Z,28.48
2022-12-11T17:27:12.544Z,40.33
2022-12-11T17:29:40.485Z,33.75
2022-12-11T17:32:08.773Z,33.05
2022-12-11T17:34:38.642Z,30.35
2022-12-11T17:37:06.438Z,34.67
2022-12-11T17:39:33.800Z,37.88
2022-12-11T17:42:00.934Z,27.73
2022-12-11T17:44:30.548Z,30.02
2022-12-11T17:46:59.148Z,32.42
2022-12-11T17:49:26.810Z,36.25
2022-12-11T17:51:55.399Z,38.08
2022-12-11T17:54:24.073Z,42.47
2022-12-11T17:56:51.394Z,35.63
2022-12-11T17:59:18.486Z,36.97
2022-12-11T18:01:45.628Z,37.85
2022-12-11T18:04:13.047Z,33.47
2022-12-11T18:06:40.457Z,32.50
2022-12-11T18:09:09.120Z,35.80
2022-12-11T18:11:36.309Z,39.28
2022-12-11T18:14:03.574Z,33.45
2022-12-11T18:17:09.147Z,32.22
2022-12-11T18:19:39.182Z,36.05
2022-12-11T18:22:10.302Z,33.22
2022-12-11T18:24:37.880Z,37.35
2022-12-11T18:27:04.896Z,36.53
2022-12-11T18:29:32.051Z,37.95
2022-12-11T18:31:59.034Z,34.08
2022-12-11T18:34:26.039Z,37.80
2022-12-11T19:08:26.493Z,42.00
2022-12-11T19:10:53.466Z,30.63
2022-12-11T19:13:20.456Z,34.92
2022-12-11T19:15:47.444Z,33.75
2022-12-11T19:18:15.031Z,34.72
2022-12-11T19:20:55.604Z,37.92
2022-12-11T19:26:23.896Z,35.13
2022-12-11T19:28:52.897Z,34.63
2022-12-11T20:46:18.781Z,36.45
2022-12-11T20:48:47.541Z,36.58
2022-12-11T20:54:04.604Z,36.80
2022-12-11T21:07:57.638Z,34.75
2022-12-11T22:13:58.424Z,29.40
2022-12-11T22:16:25.752Z,29.80
2022-12-11T22:18:53.052Z,40.22
2022-12-11T22:21:20.748Z,32.53
2022-12-11T22:23:47.796Z,35.80
2022-12-11T22:26:22.373Z,30.95
2022-12-11T22:31:45.215Z,32.78
2022-12-11T22:34:12.344Z,31.55
2022-12-11T22:36:39.358Z,33.00
2022-12-11T22:39:09.916Z,28.48
2022-12-11T22:41:45.166Z,30.73
2022-12-11T22:44:20.986Z,30.27
2022-12-11T22:49:19.549Z,30.33
2022-12-11T22:51:47.102Z,31.35
2022-12-11T22:57:14.793Z,30.38
2022-12-11T22:59:42.457Z,34.33
2022-12-11T23:18:07.169Z,33.35
2022-12-11T23:20:34.367Z,32.30
2022-12-11T23:23:01.546Z,27.27
2022-12-11T23:25:28.823Z,32.90
2022-12-11T23:27:56.339Z,30.95
2022-12-11T23:41:47.914Z,26.00
